createdAt,value
2018-03-22T00:00:26.680Z,19.80
2018-03-22T00:02:55.475Z,20.83
2018-03-22T00:05:24.156Z,16.67
2018-03-22T00:07:52.902Z,21.23
2018-03-22T00:10:21.510Z,23.00
2018-03-22T00:12:50.174Z,19.67
2018-03-22T00:15:18.756Z,18.02
2018-03-22T00:17:48.272Z,16.00
2018-03-22T00:20:17.910Z,15.75
2018-03-22T00:22:48.257Z,17.60
2018-03-22T00:25:17.863Z,19.00
2018-03-22T00:27:46.529Z,17.15
2018-03-22T00:30:15.171Z,17.52
2018-03-22T00:32:43.771Z,17.98
2018-03-22T00:35:12.551Z,22.02
2018-03-22T00:37:41.371Z,16.30
2018-03-22T00:40:10.131Z,15.60
2018-03-22T00:42:39.549Z,19.17
2018-03-22T00:45:09.074Z,19.70
2018-03-22T00:47:38.452Z,19.33
2018-03-22T00:50:07.100Z,22.17
2018-03-22T00:52:37.237Z,21.60
2018-03-22T00:55:06.349Z,22.67
2018-03-22T00:57:34.968Z,18.52
2018-03-22T01:00:04.585Z,16.87
2018-03-22T01:02:34.029Z,17.98
2018-03-22T01:05:02.755Z,20.23
2018-03-22T01:07:31.476Z,17.52
2018-03-22T01:10:00.144Z,16.10
2018-03-22T01:12:29.524Z,21.50
2018-03-22T01:14:58.099Z,19.60
2018-03-22T01:17:26.812Z,18.48
2018-03-22T01:19:55.521Z,18.67
2018-03-22T01:22:24.592Z,17.85
2018-03-22T01:24:54.542Z,17.92
2018-03-22T01:27:24.014Z,16.48
2018-03-22T01:29:52.602Z,17.98
2018-03-22T01:32:21.194Z,16.37
2018-03-22T01:34:49.827Z,16.20
2018-03-22T01:37:19.202Z,19.05
2018-03-22T01:39:48.519Z,15.02
2018-03-22T01:42:17.902Z,16.20
2018-03-22T01:44:46.449Z,14.75
2018-03-22T01:47:15.748Z,15.27
2018-03-22T01:49:44.289Z,17.30
2018-03-22T01:52:12.941Z,17.77
2018-03-22T01:54:42.138Z,22.05
2018-03-22T01:57:11.461Z,17.23
2018-03-22T01:59:40.218Z,15.77
2018-03-22T02:02:08.964Z,17.12
2018-03-22T02:04:37.599Z,15.18
2018-03-22T02:07:07.089Z,15.25
2018-03-22T02:09:35.794Z,14.48
2018-03-22T02:12:04.427Z,15.90
2018-03-22T02:14:33.091Z,20.33
2018-03-22T02:17:02.533Z,15.25
2018-03-22T02:19:31.224Z,18.35
2018-03-22T02:22:00.719Z,16.33
2018-03-22T02:24:29.247Z,15.38
2018-03-22T02:26:59.892Z,16.85
2018-03-22T02:29:29.676Z,16.67
2018-03-22T02:31:58.372Z,17.10
2018-03-22T02:34:26.980Z,15.45
2018-03-22T02:36:55.737Z,16.27
2018-03-22T02:39:24.320Z,13.02
2018-03-22T02:41:52.919Z,16.90
2018-03-22T02:44:22.472Z,17.75
2018-03-22T02:46:51.138Z,16.85
2018-03-22T02:49:19.716Z,16.08
2018-03-22T02:51:48.347Z,19.00
2018-03-22T02:54:17.002Z,19.70
2018-03-22T02:56:45.763Z,18.55
2018-03-22T02:59:15.107Z,15.52
2018-03-22T03:01:43.999Z,17.92
2018-03-22T03:04:12.925Z,15.07
2018-03-22T03:06:41.637Z,16.90
2018-03-22T03:09:10.665Z,14.23
2018-03-22T03:11:40.119Z,14.63
2018-03-22T03:14:08.769Z,18.37
2018-03-22T03:16:37.390Z,15.07
2018-03-22T03:19:05.879Z,21.62
2018-03-22T03:21:34.431Z,15.20
2018-03-22T03:24:04.050Z,17.12
2018-03-22T03:26:33.530Z,17.02
2018-03-22T03:29:02.429Z,13.40
2018-03-22T03:31:31.698Z,15.18
2018-03-22T03:34:00.556Z,16.75
2018-03-22T03:36:29.182Z,16.40
2018-03-22T03:38:57.837Z,14.48
2018-03-22T03:41:27.187Z,18.20
2018-03-22T03:43:56.603Z,16.30
2018-03-22T03:46:25.162Z,17.62
2018-03-22T03:48:53.839Z,16.10
2018-03-22T03:51:22.576Z,16.15
2018-03-22T03:53:51.498Z,13.25
2018-03-22T03:56:20.229Z,13.62
2018-03-22T03:58:49.696Z,16.75
2018-03-22T04:01:18.608Z,18.27
2018-03-22T04:03:48.734Z,15.10
2018-03-22T04:06:17.422Z,20.00
2018-03-22T04:08:46.026Z,24.20
2018-03-22T04:11:14.699Z,17.42
2018-03-22T04:13:43.257Z,17.73
2018-03-22T04:16:11.948Z,16.17
2018-03-22T04:18:40.620Z,18.62
2018-03-22T04:21:09.258Z,18.52
2018-03-22T04:23:38.533Z,15.27
2018-03-22T04:26:07.215Z,16.65
2018-03-22T04:28:35.804Z,17.08
2018-03-22T04:31:04.404Z,15.77
2018-03-22T04:33:33.244Z,19.33
2018-03-22T04:36:03.385Z,15.38
2018-03-22T04:38:32.528Z,18.05
2018-03-22T04:41:01.244Z,17.92
2018-03-22T04:43:29.895Z,21.20
2018-03-22T04:45:58.508Z,15.93
2018-03-22T04:48:27.260Z,16.10
2018-03-22T04:50:55.873Z,17.37
2018-03-22T04:53:24.509Z,19.02
2018-03-22T04:55:53.216Z,13.88
2018-03-22T04:58:21.890Z,13.00
2018-03-22T05:00:51.274Z,13.77
2018-03-22T05:03:19.897Z,16.75
2018-03-22T05:05:48.610Z,18.35
2018-03-22T05:08:17.499Z,16.65
2018-03-22T05:10:46.734Z,15.07
2018-03-22T05:13:15.518Z,16.40
2018-03-22T05:15:44.165Z,14.00
2018-03-22T05:18:12.758Z,14.02
2018-03-22T05:20:41.354Z,13.68
2018-03-22T05:23:10.282Z,17.25
2018-03-22T05:25:39.062Z,14.90
2018-03-22T05:28:07.646Z,13.80
2018-03-22T05:30:36.324Z,18.02
2018-03-22T05:33:05.072Z,18.35
2018-03-22T05:35:33.743Z,12.80
2018-03-22T05:38:03.100Z,16.77
2018-03-22T05:40:32.013Z,15.02
2018-03-22T05:43:01.246Z,17.08
2018-03-22T05:45:30.184Z,14.57
2018-03-22T05:47:58.861Z,14.35
2018-03-22T05:50:28.124Z,14.27
2018-03-22T05:52:57.668Z,16.27
2018-03-22T05:55:26.244Z,17.80
2018-03-22T05:57:54.794Z,13.38
2018-03-22T06:00:25.140Z,14.32
2018-03-22T06:02:53.816Z,14.32
2018-03-22T06:05:23.234Z,12.43
2018-03-22T06:07:51.912Z,14.75
2018-03-22T06:10:20.502Z,13.70
2018-03-22T06:12:49.153Z,13.13
2018-03-22T06:15:18.484Z,13.60
2018-03-22T06:17:47.322Z,12.25
2018-03-22T06:20:15.907Z,14.50
2018-03-22T06:22:45.411Z,17.27
2018-03-22T06:25:14.145Z,15.57
2018-03-22T06:27:43.557Z,20.77
2018-03-22T06:30:12.106Z,19.58
2018-03-22T06:32:40.704Z,13.07
2018-03-22T06:35:09.397Z,9.57
2018-03-22T06:37:38.000Z,10.63
2018-03-22T06:40:06.704Z,13.65
2018-03-22T06:42:36.154Z,17.52
2018-03-22T06:45:05.012Z,11.35
2018-03-22T06:47:34.389Z,11.52
2018-03-22T06:50:03.520Z,15.27
2018-03-22T06:52:32.183Z,12.35
2018-03-22T06:55:00.868Z,20.55
2018-03-22T06:57:29.386Z,16.75
2018-03-22T06:59:58.834Z,13.85
2018-03-22T07:02:27.500Z,11.27
2018-03-22T07:04:56.142Z,13.05
2018-03-22T07:07:24.814Z,12.10
2018-03-22T07:09:53.519Z,17.35
2018-03-22T07:12:22.196Z,12.40
2018-03-22T07:14:51.318Z,13.95
2018-03-22T07:17:21.158Z,11.23
2018-03-22T07:19:49.916Z,15.20
2018-03-22T07:22:18.867Z,12.18
2018-03-22T07:24:47.924Z,8.88
2018-03-22T07:27:17.426Z,13.20
2018-03-22T07:29:45.971Z,12.88
2018-03-22T07:32:15.936Z,19.08
2018-03-22T07:34:44.708Z,13.38
2018-03-22T07:37:14.561Z,12.57
2018-03-22T07:39:43.238Z,10.63
2018-03-22T07:42:12.282Z,12.88
2018-03-22T07:44:41.102Z,10.85
2018-03-22T07:47:10.299Z,11.82
2018-03-22T07:49:41.711Z,12.27
2018-03-22T07:52:12.253Z,8.55
2018-03-22T07:54:40.899Z,11.68
2018-03-22T07:57:09.627Z,14.45
2018-03-22T07:59:38.248Z,16.13
2018-03-22T08:02:06.934Z,10.03
2018-03-22T08:04:36.406Z,12.53
2018-03-22T08:07:05.111Z,9.97
2018-03-22T08:09:33.831Z,5.63
2018-03-22T08:12:02.467Z,8.70
2018-03-22T08:14:31.126Z,10.63
2018-03-22T08:16:59.797Z,9.97
2018-03-22T08:19:29.743Z,9.20
2018-03-22T08:21:58.775Z,7.03
2018-03-22T08:24:28.316Z,11.93
2018-03-22T08:26:58.775Z,13.00
2018-03-22T08:29:27.582Z,10.40
2018-03-22T08:31:56.331Z,7.07
2018-03-22T08:34:25.670Z,8.00
2018-03-22T08:36:54.960Z,10.83
2018-03-22T08:39:23.582Z,6.87
2018-03-22T08:41:52.367Z,8.47
2018-03-22T08:44:21.057Z,10.80
2018-03-22T08:46:49.616Z,16.63
2018-03-22T08:49:18.592Z,9.37
2018-03-22T08:51:47.856Z,9.00
2018-03-22T08:54:17.283Z,6.43
2018-03-22T08:56:45.990Z,8.30
2018-03-22T08:59:14.576Z,11.30
2018-03-22T09:01:44.054Z,9.13
2018-03-22T09:04:12.691Z,9.87
2018-03-22T09:06:42.122Z,10.87
2018-03-22T09:09:11.518Z,8.87
2018-03-22T09:11:40.050Z,12.40
2018-03-22T09:14:09.436Z,8.17
2018-03-22T09:16:38.962Z,11.17
2018-03-22T09:19:07.620Z,9.20
2018-03-22T09:21:36.627Z,8.30
2018-03-22T09:24:06.872Z,9.77
2018-03-22T09:29:36.373Z,8.20
2018-03-22T09:32:05.045Z,7.97
2018-03-22T09:34:33.971Z,7.77
2018-03-22T09:37:02.708Z,11.17
2018-03-22T09:39:31.301Z,9.60
2018-03-22T09:41:59.892Z,11.77
2018-03-22T09:44:28.441Z,9.40
2018-03-22T09:46:57.922Z,8.60
2018-03-22T09:49:26.505Z,15.93
2018-03-22T09:51:55.220Z,10.63
2018-03-22T09:54:23.812Z,10.83
2018-03-22T09:56:52.724Z,12.33
2018-03-22T09:59:22.060Z,11.80
2018-03-22T10:01:52.223Z,10.23
2018-03-22T10:04:21.004Z,6.77
2018-03-22T10:06:49.719Z,8.30
2018-03-22T10:09:18.411Z,6.07
2018-03-22T10:11:46.978Z,11.03
2018-03-22T10:14:16.611Z,8.37
2018-03-22T10:16:46.178Z,10.63
2018-03-22T10:19:14.957Z,10.00
2018-03-22T10:21:43.681Z,8.77
2018-03-22T10:24:12.441Z,5.77
2018-03-22T10:26:41.937Z,10.07
2018-03-22T10:29:10.776Z,7.77
2018-03-22T10:31:40.183Z,14.60
2018-03-22T10:34:09.630Z,6.80
2018-03-22T10:36:40.599Z,8.03
2018-03-22T10:39:09.385Z,10.07
2018-03-22T10:41:38.321Z,12.93
2018-03-22T10:44:07.751Z,18.17
2018-03-22T10:46:37.252Z,8.27
2018-03-22T10:49:06.192Z,17.73
2018-03-22T10:51:36.010Z,13.00
2018-03-22T10:54:06.334Z,10.93
2018-03-22T10:56:36.038Z,15.60
2018-03-22T10:59:07.512Z,9.27
2018-03-22T11:01:41.639Z,7.50
2018-03-22T11:04:10.501Z,7.27
2018-03-22T11:06:39.877Z,7.17
2018-03-22T11:09:08.859Z,6.30
2018-03-22T11:11:38.734Z,9.23
2018-03-22T11:14:07.512Z,6.50
2018-03-22T11:16:36.268Z,12.43
2018-03-22T11:19:05.009Z,7.63
2018-03-22T11:21:35.392Z,4.60
2018-03-22T11:24:05.031Z,5.27
2018-03-22T11:26:33.649Z,10.60
2018-03-22T11:29:02.925Z,5.90
2018-03-22T11:31:31.518Z,8.07
2018-03-22T11:34:01.479Z,7.63
2018-03-22T11:36:30.286Z,8.57
2018-03-22T11:38:59.266Z,9.27
2018-03-22T11:41:28.746Z,8.03
2018-03-22T11:43:57.353Z,5.00
2018-03-22T11:46:25.947Z,6.27
2018-03-22T11:48:55.232Z,7.83
2018-03-22T11:51:24.097Z,9.03
2018-03-22T11:53:53.466Z,8.40
2018-03-22T11:56:23.246Z,6.60
2018-03-22T11:58:52.020Z,8.90
2018-03-22T12:01:20.777Z,11.30
2018-03-22T12:03:50.153Z,6.97
2018-03-22T12:06:18.786Z,6.00
2018-03-22T12:08:47.428Z,6.43
2018-03-22T12:11:16.992Z,7.37
2018-03-22T12:13:45.667Z,4.40
2018-03-22T12:16:15.204Z,6.17
2018-03-22T12:18:48.786Z,4.83
2018-03-22T12:21:18.172Z,7.23
2018-03-22T12:23:47.131Z,6.57
2018-03-22T12:26:15.810Z,5.97
2018-03-22T12:28:44.458Z,7.97
2018-03-22T12:31:13.824Z,7.63
2018-03-22T12:33:42.584Z,5.93
2018-03-22T12:36:12.109Z,5.50
2018-03-22T12:38:41.719Z,5.07
2018-03-22T12:41:10.292Z,8.87
2018-03-22T12:43:38.905Z,6.40
2018-03-22T12:46:07.513Z,7.43
2018-03-22T12:48:36.104Z,4.83
2018-03-22T12:51:05.743Z,8.27
2018-03-22T12:53:34.845Z,6.27
2018-03-22T12:56:03.750Z,7.43
2018-03-22T12:58:32.434Z,7.73
2018-03-22T13:01:01.770Z,6.00
2018-03-22T13:03:30.467Z,4.23
2018-03-22T13:05:59.834Z,4.97
2018-03-22T13:08:28.483Z,3.73
2018-03-22T13:10:58.062Z,6.03
2018-03-22T13:13:27.477Z,4.97
2018-03-22T13:15:56.238Z,4.67
2018-03-22T13:18:26.392Z,4.47
2018-03-22T13:20:56.054Z,6.10
2018-03-22T13:23:26.286Z,7.23
2018-03-22T13:25:55.428Z,7.23
2018-03-22T13:28:24.182Z,11.13
2018-03-22T13:30:53.912Z,5.20
2018-03-22T13:33:23.795Z,5.50
2018-03-22T13:35:52.803Z,5.23
2018-03-22T13:38:22.383Z,7.00
2018-03-22T13:40:52.810Z,6.37
2018-03-22T13:43:21.668Z,9.83
2018-03-22T13:45:50.584Z,6.80
2018-03-22T13:48:19.435Z,5.80
2018-03-22T13:50:49.039Z,5.60
2018-03-22T13:53:20.159Z,7.40
2018-03-22T13:55:49.764Z,9.07
2018-03-22T13:58:19.444Z,5.03
2018-03-22T14:00:48.273Z,8.43
2018-03-22T14:03:17.366Z,7.33
2018-03-22T14:05:46.150Z,9.90
2018-03-22T14:08:16.467Z,14.23
2018-03-22T14:10:45.188Z,12.67
2018-03-22T14:13:13.938Z,5.87
2018-03-22T14:15:43.220Z,4.77
2018-03-22T14:18:12.780Z,5.23
2018-03-22T14:20:44.056Z,5.10
2018-03-22T14:23:12.743Z,3.83
2018-03-22T14:25:41.548Z,4.40
2018-03-22T14:28:10.247Z,5.17
2018-03-22T14:30:39.751Z,6.47
2018-03-22T14:33:09.111Z,5.30
2018-03-22T14:35:37.948Z,4.53
2018-03-22T14:38:06.724Z,4.67
2018-03-22T14:40:35.585Z,12.40
2018-03-22T14:43:05.217Z,8.40
2018-03-22T14:45:34.718Z,6.33
2018-03-22T14:48:03.830Z,8.83
2018-03-22T14:50:33.254Z,6.47
2018-03-22T14:53:02.255Z,6.00
2018-03-22T14:55:30.962Z,7.13
2018-03-22T14:57:59.737Z,4.10
2018-03-22T15:00:29.309Z,6.20
2018-03-22T15:02:58.091Z,8.20
2018-03-22T15:05:27.711Z,5.77
2018-03-22T15:07:57.231Z,7.63
2018-03-22T15:10:26.968Z,6.93
2018-03-22T15:12:55.824Z,8.27
2018-03-22T15:15:25.043Z,9.03
2018-03-22T15:17:56.669Z,6.47
2018-03-22T15:20:26.572Z,4.30
2018-03-22T15:22:56.373Z,5.70
2018-03-22T15:25:26.040Z,3.83
2018-03-22T15:27:55.192Z,7.67
2018-03-22T15:30:24.015Z,4.67
2018-03-22T15:32:52.790Z,5.40
2018-03-22T15:35:22.285Z,4.20
2018-03-22T15:37:50.838Z,3.43
2018-03-22T15:40:20.390Z,5.77
2018-03-22T15:42:49.105Z,5.30
2018-03-22T15:45:17.764Z,3.67
2018-03-22T15:47:47.697Z,8.23
2018-03-22T15:50:17.496Z,9.17
2018-03-22T15:52:46.144Z,5.83
2018-03-22T15:55:15.561Z,7.37
2018-03-22T15:57:45.091Z,5.77
2018-03-22T16:00:14.557Z,7.57
2018-03-22T16:02:43.780Z,3.17
2018-03-22T16:05:12.477Z,3.93
2018-03-22T16:07:41.293Z,6.60
2018-03-22T16:10:10.012Z,5.07
2018-03-22T16:12:39.178Z,7.27
2018-03-22T16:15:09.273Z,5.47
2018-03-22T16:17:39.036Z,5.77
2018-03-22T16:20:09.143Z,4.80
2018-03-22T16:22:38.006Z,5.33
2018-03-22T16:25:06.848Z,5.43
2018-03-22T16:27:35.635Z,9.20
2018-03-22T16:30:04.780Z,7.27
2018-03-22T16:32:33.568Z,8.97
2018-03-22T16:35:02.329Z,4.63
2018-03-22T16:37:31.101Z,9.57
2018-03-22T16:39:59.767Z,7.03
2018-03-22T16:42:29.282Z,9.93
2018-03-22T16:44:58.752Z,5.67
2018-03-22T16:47:27.909Z,13.93
2018-03-22T16:49:57.842Z,13.70
2018-03-22T16:52:26.907Z,7.55
2018-03-22T16:54:55.813Z,6.85
2018-03-22T16:57:24.546Z,7.85
2018-03-22T16:59:53.454Z,7.25
2018-03-22T17:02:22.552Z,7.18
2018-03-22T17:04:51.218Z,7.85
2018-03-22T17:07:20.112Z,7.07
2018-03-22T17:09:48.968Z,7.62
2018-03-22T17:12:18.820Z,7.93
2018-03-22T17:14:48.000Z,7.20
2018-03-22T17:17:19.304Z,15.65
2018-03-22T17:19:49.461Z,7.00
2018-03-22T17:22:19.358Z,7.45
2018-03-22T17:24:53.062Z,7.45
2018-03-22T17:27:22.859Z,21.20
2018-03-22T17:29:51.593Z,18.65
2018-03-22T17:32:21.157Z,9.27
2018-03-22T17:34:50.024Z,15.75
2018-03-22T17:37:18.756Z,10.40
2018-03-22T17:39:48.385Z,10.95
2018-03-22T17:42:19.780Z,12.95
2018-03-22T17:44:49.392Z,14.05
2018-03-22T17:47:18.366Z,7.80
2018-03-22T17:49:47.304Z,9.63
2018-03-22T17:52:17.033Z,5.87
2018-03-22T17:54:46.692Z,8.25
2018-03-22T17:57:15.654Z,13.35
2018-03-22T17:59:44.681Z,11.75
2018-03-22T18:02:14.419Z,8.82
2018-03-22T18:04:43.372Z,13.65
2018-03-22T18:07:12.337Z,10.68
2018-03-22T18:09:42.472Z,12.37
2018-03-22T18:12:12.181Z,11.05
2018-03-22T18:14:41.577Z,21.45
2018-03-22T18:17:10.733Z,19.95
2018-03-22T18:19:39.700Z,26.70
2018-03-22T18:22:08.764Z,11.15
2018-03-22T18:24:38.018Z,7.30
2018-03-22T18:27:07.072Z,8.98
2018-03-22T18:29:36.102Z,12.57
2018-03-22T18:32:04.943Z,6.53
2018-03-22T18:34:34.084Z,7.05
2018-03-22T18:37:03.053Z,9.32
2018-03-22T18:39:32.119Z,11.15
2018-03-22T18:42:02.751Z,26.48
2018-03-22T18:44:32.804Z,27.00
2018-03-22T18:47:04.024Z,27.90
2018-03-22T18:49:33.995Z,16.02
2018-03-22T18:52:03.694Z,18.58
2018-03-22T18:54:33.404Z,6.53
2018-03-22T18:57:02.412Z,34.22
2018-03-22T18:59:31.529Z,10.95
2018-03-22T19:02:00.612Z,9.10
2018-03-22T19:04:29.894Z,18.85
2018-03-22T19:07:00.082Z,21.67
2018-03-22T19:09:30.135Z,27.42
2018-03-22T19:11:59.326Z,10.80
2018-03-22T19:14:29.633Z,26.17
2018-03-22T19:16:58.957Z,14.43
2018-03-22T19:19:29.041Z,22.95
2018-03-22T19:21:59.162Z,8.85
2018-03-22T19:24:28.184Z,16.40
2018-03-22T19:26:57.280Z,16.00
2018-03-22T19:29:27.781Z,13.07
2018-03-22T19:31:58.491Z,11.02
2018-03-22T19:34:28.241Z,9.45
2018-03-22T19:36:57.481Z,11.25
2018-03-22T19:39:27.944Z,6.07
2018-03-22T19:41:57.068Z,6.82
2018-03-22T19:44:26.565Z,9.07
2018-03-22T19:46:55.780Z,6.60
2018-03-22T19:49:25.308Z,13.68
2018-03-22T19:51:55.195Z,8.10
2018-03-22T19:54:25.236Z,9.05
2018-03-22T19:56:55.785Z,12.27
2018-03-22T19:59:25.625Z,10.77
2018-03-22T20:01:57.580Z,9.30
2018-03-22T20:04:26.501Z,10.13
2018-03-22T20:06:56.152Z,13.48
2018-03-22T20:09:25.108Z,10.38
2018-03-22T20:11:55.225Z,7.15
2018-03-22T20:14:24.348Z,8.07
2018-03-22T20:16:53.464Z,5.75
2018-03-22T20:19:22.636Z,12.37
2018-03-22T20:21:52.422Z,7.40
2018-03-22T20:24:22.152Z,8.43
2018-03-22T20:26:52.164Z,13.38
2018-03-22T20:29:22.240Z,7.68
2018-03-22T20:31:51.744Z,23.62
2018-03-22T20:34:21.327Z,11.00
2018-03-22T20:36:51.223Z,9.63
2018-03-22T20:39:21.214Z,15.68
2018-03-22T20:41:50.740Z,15.80
2018-03-22T20:44:20.390Z,15.40
2018-03-22T20:46:49.449Z,17.52
2018-03-22T20:49:18.700Z,19.48
2018-03-22T20:51:50.083Z,30.70
2018-03-22T20:54:19.344Z,17.73
2018-03-22T20:56:48.210Z,10.38
2018-03-22T20:59:17.594Z,11.73
2018-03-22T21:01:46.684Z,8.57
2018-03-22T21:04:16.233Z,11.18
2018-03-22T21:06:46.586Z,10.95
2018-03-22T21:09:15.793Z,13.15
2018-03-22T21:11:44.672Z,24.63
2018-03-22T21:14:13.449Z,30.08
2018-03-22T21:16:42.411Z,31.87
2018-03-22T21:19:12.112Z,31.83
2018-03-22T21:21:41.245Z,19.15
2018-03-22T21:24:10.565Z,20.25
2018-03-22T21:26:39.692Z,16.20
2018-03-22T21:29:08.535Z,11.65
2018-03-22T21:31:38.125Z,11.32
2018-03-22T21:34:07.061Z,24.27
2018-03-22T21:36:35.975Z,23.65
2018-03-22T21:39:05.054Z,22.23
2018-03-22T21:41:34.438Z,20.27
2018-03-22T21:44:16.831Z,19.80
2018-03-22T21:46:45.450Z,18.23
2018-03-22T21:49:14.985Z,31.98
2018-03-22T21:54:54.576Z,23.42
2018-03-22T21:57:23.842Z,30.58
2018-03-22T21:59:53.431Z,41.33
2018-03-22T22:02:23.879Z,33.97
2018-03-22T22:04:53.213Z,41.92
2018-03-22T22:07:23.070Z,31.62
2018-03-22T22:09:52.142Z,24.30
2018-03-22T22:12:20.893Z,16.80
2018-03-22T22:14:49.601Z,18.85
2018-03-22T22:17:19.422Z,13.50
2018-03-22T22:19:48.263Z,12.95
2018-03-22T22:22:16.886Z,12.00
2018-03-22T22:24:46.187Z,11.77
2018-03-22T22:27:16.233Z,13.38
2018-03-22T22:29:45.730Z,15.52
2018-03-22T22:32:14.590Z,19.23
2018-03-22T22:34:43.836Z,16.55
2018-03-22T22:37:12.892Z,18.52
2018-03-22T22:39:42.511Z,21.80
2018-03-22T22:42:12.132Z,18.20
2018-03-22T22:44:41.006Z,17.70
2018-03-22T22:47:09.712Z,18.30
2018-03-22T22:49:38.407Z,17.65
2018-03-22T22:52:07.107Z,27.95
2018-03-22T22:54:35.775Z,17.83
2018-03-22T22:57:04.547Z,18.77
2018-03-22T22:59:33.118Z,15.48
2018-03-22T23:02:02.659Z,18.20
2018-03-22T23:04:32.384Z,16.23
2018-03-22T23:07:01.668Z,16.52
2018-03-22T23:09:30.610Z,13.07
2018-03-22T23:11:59.289Z,15.10
2018-03-22T23:14:28.003Z,15.02
2018-03-22T23:16:57.673Z,12.93
2018-03-22T23:19:26.383Z,16.42
2018-03-22T23:21:55.278Z,17.27
2018-03-22T23:24:23.996Z,11.63
2018-03-22T23:26:52.609Z,17.67
2018-03-22T23:29:22.049Z,11.73
2018-03-22T23:31:50.831Z,16.95
2018-03-22T23:34:19.791Z,13.95
2018-03-22T23:36:49.020Z,14.57
2018-03-22T23:39:19.170Z,12.90
2018-03-22T23:41:47.891Z,15.35
2018-03-22T23:44:18.243Z,13.23
2018-03-22T23:46:46.961Z,16.08
2018-03-22T23:49:15.855Z,12.80
2018-03-22T23:51:45.324Z,11.77
2018-03-22T23:54:14.212Z,12.73
2018-03-22T23:56:42.806Z,12.50
2018-03-22T23:59:11.528Z,11.23
